Terminal Aerodrome Forecast
Issued by NWS Louisville, KY

Home | Current Version | Previous Version | Text Only | Print | Product List | Glossary On
Versions: 1 2 3 4 5 6 7 8 9 10 11 12 13 14 15 16 17
950
FTUS43 KLMK 260741 AAA
TAFLEX
TAF AMD
KLEX 260741Z 2608/2706 24005KT 5SM BR FEW040
     FM260900 24005KT P6SM FEW040
     FM261500 23008KT P6SM FEW040 FEW180
     FM262300 19006KT P6SM SCT060 SCT150=

USA.gov is the U.S. government's official web portal to all federal, state and local government web resources and services.